Time;durP1;ratioP1;P1;durP2;ratioP2;P2;SDS_P1;SDS_P2;PMS_P1;PMS_P2;Temp;Humidity;BMP_temperature;BMP_pressure;BME280_temperature;BME280_humidity;BME280_pressure;Samples;Min_cycle;Max_cycle;Signal;HPM_P1;HPM_P2
2022/01/03 00:01:57;;;;;;;6.57;2.20;;;;;;;-144.19;100.00;76258.38;5061695;28;20508;-91
2022/01/03 00:04:24;;;;;;;6.97;1.52;;;;;;;-144.19;100.00;76278.06;5059499;28;20513;-90
2022/01/03 00:06:50;;;;;;;8.98;1.30;;;;;;;-144.19;100.00;76293.81;5059702;28;20048;-90
2022/01/03 00:09:17;;;;;;;10.35;2.03;;;;;;;-144.19;100.00;76291.84;5076038;28;20063;-88
2022/01/03 00:11:46;;;;;;;8.00;1.45;;;;;;;-144.19;100.00;76303.66;5059458;28;20089;-88
2022/01/03 00:14:13;;;;;;;11.15;1.60;;;;;;;-144.19;100.00;76325.31;5044415;28;20045;-90
2022/01/03 00:16:39;;;;;;;8.93;1.30;;;;;;;-144.19;100.00;76327.28;5040105;28;20059;-90
2022/01/03 00:19:06;;;;;;;7.70;1.70;;;;;;;-144.19;100.00;76321.38;5057313;28;20071;-87
2022/01/03 00:21:42;;;;;;;9.13;1.75;;;;;;;-144.19;100.00;76313.50;5039137;28;20048;-88
2022/01/03 00:24:10;;;;;;;6.93;1.60;;;;;;;-144.19;100.00;76323.34;5056243;28;20053;-88
2022/01/03 00:26:38;;;;;;;4.82;1.50;;;;;;;-144.19;100.00;76319.41;5039358;28;20060;-89
2022/01/03 00:29:18;;;;;;;7.28;1.42;;;;;;;-144.19;100.00;76307.59;5040194;28;20608;-89
2022/01/03 00:31:45;;;;;;;8.57;1.60;;;;;;;-144.19;100.00;76343.03;5057873;28;20056;-89
2022/01/03 00:34:14;;;;;;;8.45;2.05;;;;;;;-144.19;100.00;76341.06;5038258;28;20053;-89
2022/01/03 00:36:44;;;;;;;6.45;2.05;;;;;;;-144.19;100.00;76350.88;5039482;28;20430;-87
2022/01/03 00:39:11;;;;;;;11.60;1.95;;;;;;;-144.19;100.00;76366.63;5039771;28;20061;-88
2022/01/03 00:41:39;;;;;;;;;;;;;;;-144.19;100.00;76382.38;5039996;28;20052;-87
2022/01/03 00:44:06;;;;;;;11.43;1.77;;;;;;;-144.19;100.00;76382.38;5056694;28;19921;-89
2022/01/03 00:46:34;;;;;;;7.57;2.10;;;;;;;-144.19;100.00;76380.41;5052757;28;20204;-87
2022/01/03 00:49:01;;;;;;;;;;;;;;;-144.19;100.00;76396.16;5059969;28;20089;-88
2022/01/03 00:51:27;;;;;;;6.90;1.38;;;;;;;-144.19;100.00;76390.25;5059285;28;19943;-87
2022/01/03 00:53:54;;;;;;;11.00;2.00;;;;;;;-144.19;100.00;76400.09;5059272;28;20048;-87
2022/01/03 00:56:33;;;;;;;11.67;2.03;;;;;;;-144.19;100.00;76398.13;5073051;28;20048;-89
2022/01/03 00:59:06;;;;;;;9.40;1.58;;;;;;;-144.19;100.00;76390.25;5079538;28;20063;-90
2022/01/03 01:01:39;;;;;;;16.13;2.35;;;;;;;-144.19;100.00;76380.41;5073285;28;20048;-89
2022/01/03 01:04:08;;;;;;;8.48;2.00;;;;;;;-144.19;100.00;76394.19;5059014;28;20044;-86
2022/01/03 01:06:36;;;;;;;11.98;2.50;;;;;;;-144.19;100.00;76394.19;5059175;28;20049;-88
2022/01/03 01:09:06;;;;;;;12.35;1.80;;;;;;;-144.19;100.00;76402.06;5062610;28;20075;-90
2022/01/03 01:11:33;;;;;;;11.80;2.22;;;;;;;-144.19;100.00;76396.16;5059126;28;20417;-89
2022/01/03 01:14:01;;;;;;;8.57;1.88;;;;;;;-144.19;100.00;76390.25;5060077;28;20044;-89
2022/01/03 01:16:28;;;;;;;14.02;1.92;;;;;;;-144.19;100.00;76392.22;5059701;28;20055;-91
2022/01/03 01:18:55;;;;;;;13.95;3.15;;;;;;;-144.19;100.00;76402.06;5060137;28;20059;-89
2022/01/03 01:21:23;;;;;;;7.80;2.23;;;;;;;-144.19;100.00;76384.34;5059388;28;20063;-89
2022/01/03 01:23:51;;;;;;;12.85;2.85;;;;;;;-144.19;100.00;76402.06;5060054;28;20238;-89
2022/01/03 01:29:05;;;;;;;12.95;1.90;;;;;;;-144.19;100.00;76382.38;5078539;28;20052;-88
2022/01/03 01:31:34;;;;;;;13.90;1.70;;;;;;;-144.19;100.00;76394.19;5060355;28;20060;-90
2022/01/03 01:34:05;;;;;;;11.98;2.38;;;;;;;-144.19;100.00;76374.50;5051240;28;20055;-87
2022/01/03 01:36:33;;;;;;;14.50;2.35;;;;;;;-144.19;100.00;76388.28;5039442;28;20061;-87
2022/01/03 01:39:05;;;;;;;14.98;2.40;;;;;;;-144.19;100.00;76382.38;5040522;28;20048;-88
2022/01/03 01:41:37;;;;;;;14.55;2.17;;;;;;;-144.19;100.00;76394.19;5040086;28;20053;-87
2022/01/03 01:44:07;;;;;;;8.88;1.90;;;;;;;-144.19;100.00;76394.19;5055258;28;20048;-86
2022/01/03 01:46:35;;;;;;;14.40;2.63;;;;;;;-144.19;100.00;76400.09;5061132;28;20131;-89
2022/01/03 01:49:05;;;;;;;10.70;2.25;;;;;;;-144.19;100.00;76402.06;5060197;28;20095;-86
2022/01/03 01:51:36;;;;;;;13.07;1.98;;;;;;;-144.19;100.00;76394.19;5079276;28;20052;-87
2022/01/03 01:54:05;;;;;;;15.20;2.25;;;;;;;-144.19;100.00;76406.00;5059369;28;20442;-88
2022/01/03 01:56:49;;;;;;;11.55;2.10;;;;;;;-144.19;100.00;76402.06;5089672;28;20040;-89
2022/01/03 01:59:20;;;;;;;5.90;1.60;;;;;;;-144.19;100.00;76409.94;5061613;28;20049;-89
2022/01/03 02:01:48;;;;;;;10.18;1.88;;;;;;;-144.19;100.00;76409.94;5061720;28;20054;-90
2022/01/03 02:04:31;;;;;;;11.63;2.08;;;;;;;-144.19;100.00;76411.91;5066705;28;20049;-87
2022/01/03 02:07:39;;;;;;;13.25;2.28;;;;;;;-144.19;100.00;76421.75;5060648;28;20391;-90
2022/01/03 02:10:11;;;;;;;10.85;2.40;;;;;;;-144.19;100.00;76425.69;5041303;28;20052;-88
2022/01/03 02:12:40;;;;;;;12.05;2.50;;;;;;;-144.19;100.00;76435.53;5058334;28;20055;-87
2022/01/03 02:15:13;;;;;;;13.32;2.20;;;;;;;-144.19;100.00;76435.53;5043075;28;20113;-88
2022/01/03 02:17:44;;;;;;;12.93;2.40;;;;;;;-144.19;100.00;76433.56;5046685;28;20116;-89
2022/01/03 02:20:14;;;;;;;16.40;2.67;;;;;;;-144.19;100.00;76435.53;5043110;28;20061;-91
2022/01/03 02:22:42;;;;;;;13.90;2.65;;;;;;;-144.19;100.00;76437.50;5042537;28;20053;-89
2022/01/03 02:25:11;;;;;;;17.35;2.60;;;;;;;-144.19;100.00;76453.25;5045398;28;20051;-89
2022/01/03 02:27:39;;;;;;;15.43;3.08;;;;;;;-144.19;100.00;76445.38;5041688;28;20060;-87
2022/01/03 02:30:10;;;;;;;15.02;3.42;;;;;;;-144.19;100.00;76421.75;5055876;28;20052;-89
2022/01/03 02:32:36;;;;;;;17.75;3.08;;;;;;;-144.19;100.00;76425.69;5061044;28;20086;-87
2022/01/03 02:35:04;;;;;;;15.40;2.63;;;;;;;-144.19;100.00;76425.69;5061983;28;20045;-90
2022/01/03 02:37:32;;;;;;;11.60;2.65;;;;;;;-144.19;100.00;76431.59;5062294;28;20690;-87
2022/01/03 02:39:58;;;;;;;12.32;2.55;;;;;;;-144.19;100.00;76419.78;5059917;28;20214;-90
2022/01/03 02:42:28;;;;;;;15.90;2.38;;;;;;;-144.19;100.00;76429.63;5061505;28;20064;-88
2022/01/03 02:45:10;;;;;;;11.63;2.90;;;;;;;-144.19;100.00;76437.50;5060617;28;20048;-89
2022/01/03 02:47:38;;;;;;;13.63;2.67;;;;;;;-144.19;100.00;76425.69;5061384;28;20060;-88
2022/01/03 02:50:06;;;;;;;14.77;2.83;;;;;;;-144.19;100.00;76447.34;5062439;28;20082;-90
2022/01/03 02:52:33;;;;;;;14.80;2.80;;;;;;;-144.19;100.00;76441.44;5057768;28;20056;-90
2022/01/03 02:55:00;;;;;;;19.48;2.92;;;;;;;-144.19;100.00;76429.63;5062713;28;20115;-89
2022/01/03 02:57:37;;;;;;;17.10;2.55;;;;;;;-144.19;100.00;76441.44;5096186;28;20052;-88
2022/01/03 03:00:10;;;;;;;13.47;3.30;;;;;;;-144.19;100.00;76449.31;5101602;28;20112;-89
2022/01/03 03:02:36;;;;;;;15.00;2.90;;;;;;;-144.19;100.00;76435.53;5050926;28;20060;-89
2022/01/03 03:05:06;;;;;;;14.85;3.28;;;;;;;-144.19;100.00;76447.34;5041776;28;20427;-86
2022/01/03 03:07:33;;;;;;;15.40;2.40;;;;;;;-144.19;100.00;76425.69;5041804;28;20048;-87
2022/01/03 03:10:03;;;;;;;12.52;2.33;;;;;;;-144.19;100.00;76437.50;5043449;28;20534;-89
2022/01/03 03:12:29;;;;;;;14.43;3.17;;;;;;;-144.19;100.00;76437.50;5041323;28;20059;-91
2022/01/03 03:14:56;;;;;;;13.15;3.42;;;;;;;-144.19;100.00;76433.56;5041524;28;20422;-89
2022/01/03 03:17:22;;;;;;;22.50;3.73;;;;;;;-144.19;100.00;76445.38;5043353;28;20377;-89
2022/01/03 03:19:56;;;;;;;15.90;2.60;;;;;;;-144.19;100.00;76441.44;5043745;28;20284;-88
2022/01/03 03:22:25;;;;;;;17.30;2.72;;;;;;;-144.19;100.00;76427.66;5043420;28;20053;-91
2022/01/03 03:25:04;;;;;;;15.55;2.95;;;;;;;-144.19;100.00;76445.38;5042801;28;20052;-88
2022/01/03 03:27:31;;;;;;;17.20;3.83;;;;;;;-144.19;100.00;76443.41;5042813;28;20499;-90
2022/01/03 03:30:15;;;;;;;13.75;2.78;;;;;;;-144.19;100.00;76455.22;5044412;28;20055;-91
2022/01/03 03:32:43;;;;;;;12.43;2.83;;;;;;;-144.19;100.00;76433.56;5042604;28;20108;-87
2022/01/03 03:35:10;;;;;;;18.67;3.03;;;;;;;-144.19;100.00;76445.38;5042681;28;20051;-88
2022/01/03 03:37:37;;;;;;;;;;;;;;;-144.19;100.00;76449.31;5043455;28;20441;-90
2022/01/03 03:40:05;;;;;;;16.60;3.35;;;;;;;-144.19;100.00;76441.44;5044923;28;19944;-89
2022/01/03 03:42:32;;;;;;;20.80;4.20;;;;;;;-144.19;100.00;76449.31;5058547;28;20140;-90
2022/01/03 03:44:58;;;;;;;16.27;4.00;;;;;;;-144.19;100.00;76445.38;5079217;28;20040;-91
2022/01/03 03:47:25;;;;;;;23.17;6.27;;;;;;;-144.19;100.00;76447.34;5062263;28;20717;-89
2022/01/03 03:49:52;;;;;;;21.60;4.43;;;;;;;-144.19;100.00;76435.53;5064667;28;20561;-88
2022/01/03 03:52:18;;;;;;;24.23;4.50;;;;;;;-144.19;100.00;76437.50;5061250;28;20056;-87
2022/01/03 03:54:44;;;;;;;23.95;4.30;;;;;;;-144.19;100.00;76437.50;5079769;28;20051;-90
2022/01/03 03:57:12;;;;;;;17.00;2.97;;;;;;;-144.19;100.00;76459.16;5072844;28;20049;-89
2022/01/03 03:59:38;;;;;;;18.70;3.83;;;;;;;-144.19;100.00;76461.13;5061027;28;20082;-89
2022/01/03 04:02:06;;;;;;;20.70;4.20;;;;;;;-144.19;100.00;76457.19;5059821;28;20045;-89
2022/01/03 04:04:34;;;;;;;19.38;3.97;;;;;;;-144.19;100.00;76453.25;5061435;28;20147;-89
2022/01/03 04:07:02;;;;;;;24.20;3.65;;;;;;;-144.19;100.00;76465.06;5078436;28;20049;-90
2022/01/03 04:09:28;;;;;;;;;;;;;;;-144.19;100.00;76457.19;5061086;28;20063;-86
2022/01/03 04:11:55;;;;;;;21.25;3.92;;;;;;;-144.19;100.00;76455.22;5061694;28;19920;-87
2022/01/03 04:14:21;;;;;;;13.93;4.40;;;;;;;-144.19;100.00;76449.31;5045721;28;20052;-89
2022/01/03 04:16:48;;;;;;;21.10;3.90;;;;;;;-144.19;100.00;76443.41;5040606;28;20051;-89
2022/01/03 04:19:14;;;;;;;25.23;3.70;;;;;;;-144.19;100.00;76447.34;5042123;28;20060;-87
2022/01/03 04:21:41;;;;;;;21.53;4.17;;;;;;;-144.19;100.00;76441.44;5042069;28;20287;-89
2022/01/03 04:24:09;;;;;;;16.70;4.00;;;;;;;-144.19;100.00;76437.50;5043497;28;20052;-86
2022/01/03 04:26:37;;;;;;;25.70;3.45;;;;;;;-144.19;100.00;76445.38;5042387;28;20047;-89
2022/01/03 04:29:04;;;;;;;19.30;4.60;;;;;;;-144.19;100.00;76447.34;5043585;28;20059;-89
2022/01/03 04:31:36;;;;;;;21.88;4.43;;;;;;;-144.19;100.00;76457.19;5063360;28;20083;-89
2022/01/03 04:34:02;;;;;;;17.50;3.97;;;;;;;-144.19;100.00;76443.41;5061476;28;20083;-90
2022/01/03 04:36:28;;;;;;;29.35;5.88;;;;;;;-144.19;100.00;76447.34;5061637;28;20048;-89
2022/01/03 04:38:55;;;;;;;19.63;4.30;;;;;;;-144.19;100.00;76457.19;5079404;28;20052;-89
2022/01/03 04:41:21;;;;;;;17.40;3.90;;;;;;;-144.19;100.00;76459.16;5061560;28;20045;-88
2022/01/03 04:43:48;;;;;;;23.53;4.37;;;;;;;-144.19;100.00;76445.38;5060703;28;20044;-87
2022/01/03 04:46:14;;;;;;;19.10;4.17;;;;;;;-144.19;100.00;76447.34;5060858;28;20052;-88
2022/01/03 04:48:42;;;;;;;20.75;3.83;;;;;;;-144.19;100.00;76441.44;5063010;28;20049;-89
2022/01/03 04:51:08;;;;;;;;;;;;;;;-144.19;100.00;76457.19;5063230;28;20413;-88
2022/01/03 04:53:39;;;;;;;21.13;3.65;;;;;;;-144.19;100.00;76445.38;5060717;28;19926;-89
2022/01/03 04:56:11;;;;;;;19.50;3.90;;;;;;;-144.19;100.00;76461.13;5071632;28;20048;-87
2022/01/03 04:58:38;;;;;;;24.10;5.82;;;;;;;-144.19;100.00;76453.25;5079990;28;20055;-88
2022/01/03 05:01:05;;;;;;;;;;;;;;;-144.19;100.00;76453.25;5081702;28;20056;-90
2022/01/03 05:03:32;;;;;;;20.35;3.88;;;;;;;-144.19;100.00;76470.97;5042236;28;20321;-87
2022/01/03 05:06:00;;;;;;;20.38;4.15;;;;;;;-144.19;100.00;76457.19;5040356;28;20499;-90
2022/01/03 05:08:26;;;;;;;21.55;4.07;;;;;;;-144.19;100.00;76467.03;5058192;28;20442;-89
2022/01/03 05:10:52;;;;;;;22.95;4.68;;;;;;;-144.19;100.00;76463.09;5050747;28;20072;-87
2022/01/03 05:13:19;;;;;;;16.27;3.73;;;;;;;-144.19;100.00;76457.19;5061472;28;20048;-88
2022/01/03 05:15:46;;;;;;;17.92;4.03;;;;;;;-144.19;100.00;76472.94;5061312;28;20054;-88
2022/01/03 05:18:13;;;;;;;22.75;4.10;;;;;;;-144.19;100.00;76472.94;5057593;28;20075;-91
2022/01/03 05:20:39;;;;;;;31.05;5.43;;;;;;;-144.19;100.00;76467.03;5038851;28;20053;-90
2022/01/03 05:23:06;;;;;;;18.20;4.90;;;;;;;-144.19;100.00;76469.00;5040382;28;20072;-88
2022/01/03 05:25:32;;;;;;;28.35;4.97;;;;;;;-144.19;100.00;76463.09;5057133;28;20052;-89
2022/01/03 05:27:59;;;;;;;22.23;4.10;;;;;;;-144.19;100.00;76472.94;5055405;28;20049;-90
2022/01/03 05:30:25;;;;;;;26.40;4.83;;;;;;;-144.19;100.00;76457.19;5054901;28;20048;-90
2022/01/03 05:32:52;;;;;;;20.47;4.70;;;;;;;-144.19;100.00;76465.06;5041861;28;20490;-90
2022/01/03 05:35:18;;;;;;;23.90;4.97;;;;;;;-144.19;100.00;76457.19;5035807;28;20246;-88
2022/01/03 05:37:44;;;;;;;21.77;4.03;;;;;;;-144.19;100.00;76480.81;5035076;28;20056;-88
2022/01/03 05:40:11;;;;;;;20.42;5.10;;;;;;;-144.19;100.00;76476.88;5035501;28;20049;-89
2022/01/03 05:42:37;;;;;;;24.50;4.20;;;;;;;-144.19;100.00;76472.94;5037156;28;20418;-88
2022/01/03 05:45:04;;;;;;;18.52;4.65;;;;;;;-144.19;100.00;76472.94;5055170;28;20052;-89
2022/01/03 05:47:31;;;;;;;19.38;4.57;;;;;;;-144.19;100.00;76472.94;5055076;28;20052;-88
2022/01/03 05:49:58;;;;;;;22.37;5.20;;;;;;;-144.19;100.00;76476.88;5072721;28;20139;-88
2022/01/03 05:52:25;;;;;;;31.75;5.60;;;;;;;-144.19;100.00;76478.84;5072392;28;20301;-88
2022/01/03 05:54:52;;;;;;;20.38;4.70;;;;;;;-144.19;100.00;76461.13;5073579;28;20049;-89
2022/01/03 05:57:19;;;;;;;24.58;4.38;;;;;;;-144.19;100.00;76465.06;5064151;28;20117;-89
2022/01/03 05:59:45;;;;;;;18.98;3.90;;;;;;;-144.19;100.00;76470.97;5072564;28;20048;-89
2022/01/03 06:02:12;;;;;;;25.92;4.60;;;;;;;-144.19;100.00;76470.97;5054680;28;20048;-88
2022/01/03 06:05:00;;;;;;;24.58;3.67;;;;;;;-144.19;100.00;76465.06;5072832;28;20055;-90
2022/01/03 06:07:31;;;;;;;26.00;4.43;;;;;;;-144.19;100.00;76470.97;5055948;28;20087;-89
2022/01/03 06:09:57;;;;;;;23.15;4.63;;;;;;;-144.19;100.00;76478.84;5072685;28;20054;-87
2022/01/03 06:12:23;;;;;;;26.40;5.03;;;;;;;-144.19;100.00;76469.00;5052903;28;20045;-89
2022/01/03 06:14:50;;;;;;;22.92;5.38;;;;;;;-144.19;100.00;76465.06;5072636;28;20052;-89
2022/01/03 06:17:17;;;;;;;21.50;4.67;;;;;;;-144.19;100.00;76461.13;5054276;28;20049;-89
2022/01/03 06:19:43;;;;;;;18.02;4.50;;;;;;;-144.19;100.00;76465.06;5054345;28;20048;-90
2022/01/03 06:22:11;;;;;;;24.42;5.15;;;;;;;-144.19;100.00;76465.06;5054014;28;20056;-92
2022/01/03 06:24:38;;;;;;;19.55;5.80;;;;;;;-144.19;100.00;76453.25;5054847;28;20056;-89
2022/01/03 06:27:06;;;;;;;26.90;5.50;;;;;;;-144.19;100.00;76461.13;5072366;28;20051;-90
2022/01/03 06:29:33;;;;;;;18.75;4.95;;;;;;;-144.19;100.00;76463.09;5047032;28;20053;-91
2022/01/03 06:31:59;;;;;;;23.85;4.43;;;;;;;-144.19;100.00;76465.06;5034675;28;20056;-91
2022/01/03 06:34:26;;;;;;;24.75;5.00;;;;;;;-144.19;100.00;76453.25;5034572;28;20063;-88
2022/01/03 06:36:53;;;;;;;21.48;5.90;;;;;;;-144.19;100.00;76453.25;5035192;28;20057;-90
2022/01/03 06:39:19;;;;;;;20.67;4.80;;;;;;;-144.19;100.00;76453.25;5034695;28;20049;-89
2022/01/03 06:41:46;;;;;;;22.50;5.37;;;;;;;-144.19;100.00;76465.06;5034219;28;20541;-87
2022/01/03 06:44:12;;;;;;;21.13;5.35;;;;;;;-144.19;100.00;76447.34;5034384;28;20056;-87
2022/01/03 06:46:39;;;;;;;26.40;5.15;;;;;;;-144.19;100.00;76465.06;5049399;28;20495;-90
2022/01/03 06:49:06;;;;;;;23.55;4.40;;;;;;;-144.19;100.00;76457.19;5072256;28;20068;-88
2022/01/03 06:51:34;;;;;;;19.10;5.00;;;;;;;-144.19;100.00;76459.16;5058846;28;20142;-86
2022/01/03 06:54:04;;;;;;;31.13;5.32;;;;;;;-144.19;100.00;76445.38;5063043;28;20127;-86
2022/01/03 06:56:31;;;;;;;21.92;5.80;;;;;;;-144.19;100.00;76445.38;5073442;28;20490;-90
2022/01/03 06:58:58;;;;;;;21.20;5.63;;;;;;;-144.19;100.00;76449.31;5078716;28;20589;-89
2022/01/03 07:01:25;;;;;;;21.13;4.55;;;;;;;-144.19;100.00;76445.38;5072861;28;20055;-86
2022/01/03 07:03:51;;;;;;;23.23;5.15;;;;;;;-144.19;100.00;76463.09;5058101;28;20063;-89
2022/01/03 07:06:18;;;;;;;17.38;4.57;;;;;;;-144.19;100.00;76453.25;5058672;28;20051;-89
2022/01/03 07:08:44;;;;;;;20.30;5.40;;;;;;;-144.19;100.00;76449.31;5074629;28;20048;-90
2022/01/03 07:11:11;;;;;;;23.48;4.88;;;;;;;-144.19;100.00;76459.16;5057575;28;20070;-90
2022/01/03 07:13:50;;;;;;;19.90;6.20;;;;;;;-144.19;100.00;76455.22;5056722;28;20054;-87
2022/01/03 07:19:06;;;;;;;27.95;6.50;;;;;;;-144.19;100.00;76472.94;5054995;28;20053;-88
2022/01/03 07:21:34;;;;;;;23.65;5.65;;;;;;;-144.19;100.00;76467.03;5037952;28;20053;-91
2022/01/03 07:24:01;;;;;;;19.30;5.10;;;;;;;-144.19;100.00;76480.81;5037356;28;20045;-89
2022/01/03 07:26:27;;;;;;;26.00;6.20;;;;;;;-144.19;100.00;76480.81;5038478;28;20213;-90
2022/01/03 07:28:54;;;;;;;19.97;5.00;;;;;;;-144.19;100.00;76480.81;5043395;28;20053;-87
2022/01/03 07:31:21;;;;;;;;;;;;;;;-144.19;100.00;76492.63;5057405;28;20059;-89
2022/01/03 07:33:47;;;;;;;22.95;6.07;;;;;;;-144.19;100.00;76496.53;5056526;28;19920;-91
2022/01/03 07:36:15;;;;;;;13.33;4.23;;;;;;;-144.19;100.00;76488.69;5057283;28;20044;-87
2022/01/03 07:38:46;;;;;;;23.45;5.60;;;;;;;-144.19;100.00;76512.28;5056775;28;20533;-90
2022/01/03 07:41:15;;;;;;;25.58;5.50;;;;;;;-144.19;100.00;76494.59;5074369;28;20087;-88
2022/01/03 07:43:43;;;;;;;18.45;4.13;;;;;;;-144.19;100.00;76504.41;5044933;28;20136;-84
2022/01/03 07:46:10;;;;;;;20.95;4.82;;;;;;;-144.19;100.00;76508.34;5039747;28;20047;-88
2022/01/03 07:48:40;;;;;;;24.27;5.78;;;;;;;-144.19;100.00;76504.41;5042106;28;20063;-88
2022/01/03 07:51:07;;;;;;;17.15;3.97;;;;;;;-144.19;100.00;76504.41;5040570;28;20048;-88
2022/01/03 07:53:33;;;;;;;20.03;4.93;;;;;;;-144.19;100.00;76488.69;5057534;28;20056;-88
2022/01/03 07:56:00;;;;;;;23.30;5.23;;;;;;;-144.19;100.00;76488.69;5060392;28;20052;-89
2022/01/03 07:58:26;;;;;;;16.98;5.10;;;;;;;-144.19;100.00;76480.81;5060358;28;20776;-88
2022/01/03 08:00:52;;;;;;;18.77;4.50;;;;;;;-144.19;100.00;76488.69;5060065;28;20063;-87
2022/01/03 08:03:20;;;;;;;21.95;6.35;;;;;;;-144.19;100.00;76490.66;5049375;28;20421;-89
2022/01/03 08:06:08;;;;;;;24.80;5.15;;;;;;;-144.19;100.00;76488.69;5042645;28;20132;-89
2022/01/03 08:08:37;;;;;;;30.08;5.75;;;;;;;-144.19;100.00;76500.47;5039152;28;20091;-90
2022/01/03 08:11:04;;;;;;;24.45;5.15;;;;;;;-144.19;100.00;76514.25;5043825;28;20049;-87
2022/01/03 08:13:31;;;;;;;27.75;6.03;;;;;;;-144.19;100.00;76510.31;5059442;28;20110;-92
2022/01/03 08:15:57;;;;;;;25.92;6.70;;;;;;;-144.19;100.00;76500.47;5059628;28;20506;-87
2022/01/03 08:18:24;;;;;;;25.27;5.57;;;;;;;-144.19;100.00;76514.25;5059956;28;20560;-87
2022/01/03 08:20:53;;;;;;;24.87;5.93;;;;;;;-144.19;100.00;76512.28;5060952;28;20051;-89
2022/01/03 08:23:19;;;;;;;20.10;5.63;;;;;;;-144.19;100.00;76518.19;5046904;28;20049;-88
2022/01/03 08:25:46;;;;;;;22.98;6.95;;;;;;;-144.19;100.00;76508.34;5040404;28;20049;-88
2022/01/03 08:28:12;;;;;;;20.20;4.95;;;;;;;-144.19;100.00;76492.63;5062769;28;20057;-88
2022/01/03 08:30:39;;;;;;;18.63;5.27;;;;;;;-144.19;100.00;76496.53;5039148;28;20057;-91
2022/01/03 08:33:05;;;;;;;26.13;6.23;;;;;;;-144.19;100.00;76492.63;5039526;28;20427;-90
2022/01/03 08:35:32;;;;;;;23.30;6.45;;;;;;;-144.19;100.00;76500.47;5039666;28;20045;-89
2022/01/03 08:37:59;;;;;;;26.75;6.15;;;;;;;-144.19;100.00;76494.59;5061051;28;20058;-89
2022/01/03 08:40:26;;;;;;;21.45;5.55;;;;;;;-144.19;100.00;76492.63;5077111;28;20059;-88
2022/01/03 08:42:53;;;;;;;22.45;5.95;;;;;;;-144.19;100.00;76484.75;5058875;28;20083;-88
2022/01/03 08:45:20;;;;;;;20.92;5.78;;;;;;;-144.19;100.00;76484.75;5059012;28;20047;-90
2022/01/03 08:47:47;;;;;;;22.95;5.72;;;;;;;-144.19;100.00;76474.91;5058830;28;20048;-89
2022/01/03 08:50:15;;;;;;;21.45;5.82;;;;;;;-144.19;100.00;76484.75;5058759;28;20132;-89
2022/01/03 08:52:42;;;;;;;20.50;5.60;;;;;;;-144.19;100.00;76492.63;5050492;28;20103;-88
2022/01/03 08:55:08;;;;;;;25.03;5.80;;;;;;;-144.19;100.00;76498.50;5044220;28;20048;-88
2022/01/03 08:57:35;;;;;;;26.87;6.30;;;;;;;-144.19;100.00;76492.63;5080782;28;20043;-89
2022/01/03 09:00:02;;;;;;;27.30;6.18;;;;;;;-144.19;100.00;76508.34;5078504;28;20286;-91
2022/01/03 09:02:29;;;;;;;22.73;5.65;;;;;;;-144.19;100.00;76496.53;5079300;28;20131;-88
2022/01/03 09:04:55;;;;;;;26.92;5.65;;;;;;;-144.19;100.00;76480.81;5080712;28;20051;-88
2022/01/03 09:07:22;;;;;;;30.17;5.57;;;;;;;-144.19;100.00;76478.84;5080372;28;20040;-90
2022/01/03 09:09:48;;;;;;;23.47;6.23;;;;;;;-144.19;100.00;76472.94;5077402;28;20139;-89
2022/01/03 09:12:15;;;;;;;21.38;5.68;;;;;;;-144.19;100.00;76461.13;5059424;28;20056;-86
2022/01/03 09:14:42;;;;;;;20.73;4.60;;;;;;;-144.19;100.00;76465.06;5058871;28;20055;-89
2022/01/03 09:17:08;;;;;;;20.65;5.47;;;;;;;-144.19;100.00;76445.38;5077130;28;20051;-91
2022/01/03 09:19:35;;;;;;;20.77;5.30;;;;;;;-144.19;100.00;76461.13;5057704;28;20506;-88
2022/01/03 09:22:14;;;;;;;23.13;4.93;;;;;;;-144.19;100.00;76465.06;5057896;28;20048;-90
2022/01/03 09:24:47;;;;;;;20.75;5.65;;;;;;;-144.19;100.00;76455.22;5057781;28;20063;-92
2022/01/03 09:30:03;;;;;;;24.55;6.07;;;;;;;-144.19;100.00;76476.88;5075359;28;20055;-88
2022/01/03 09:32:29;;;;;;;21.17;5.70;;;;;;;-144.19;100.00;76463.09;5057937;28;20048;-88
2022/01/03 09:34:57;;;;;;;19.92;5.65;;;;;;;-144.19;100.00;76461.13;5058102;28;20045;-89
2022/01/03 09:37:23;;;;;;;19.83;4.57;;;;;;;-144.19;100.00;76461.13;5058891;28;20049;-87
2022/01/03 09:39:54;;;;;;;19.15;5.45;;;;;;;-144.19;100.00;76467.03;5057806;28;20055;-89
2022/01/03 09:42:27;;;;;;;21.65;5.70;;;;;;;-144.19;100.00;76451.28;5055431;28;20048;-86
2022/01/03 09:44:54;;;;;;;23.17;4.95;;;;;;;-144.19;100.00;76449.31;5038884;28;20053;-89
2022/01/03 09:47:22;;;;;;;15.80;5.15;;;;;;;-144.19;100.00;76441.44;5040621;28;20073;-87
2022/01/03 09:49:49;;;;;;;18.08;4.82;;;;;;;-144.19;100.00;76455.22;5037730;28;20052;-87
2022/01/03 09:52:22;;;;;;;22.30;4.65;;;;;;;-144.19;100.00;76445.38;5037323;28;20055;-88
2022/01/03 09:54:49;;;;;;;24.92;5.85;;;;;;;-144.19;100.00;76433.56;5056612;28;20513;-87
2022/01/03 09:57:19;;;;;;;24.83;6.13;;;;;;;-144.19;100.00;76429.63;5083997;28;20051;-88
2022/01/03 09:59:46;;;;;;;24.80;6.15;;;;;;;-144.19;100.00;76429.63;5056438;28;20512;-88
2022/01/03 10:02:15;;;;;;;22.42;4.75;;;;;;;-144.19;100.00;76453.25;5057102;28;20059;-87
2022/01/03 10:04:43;;;;;;;20.60;4.30;;;;;;;-144.19;100.00;76429.63;5080844;28;20052;-87
2022/01/03 10:07:11;;;;;;;19.85;4.63;;;;;;;-144.19;100.00;76429.63;5060044;28;20055;-90
2022/01/03 10:09:39;;;;;;;18.17;4.68;;;;;;;-144.19;100.00;76435.53;5058523;28;20077;-89
2022/01/03 10:12:05;;;;;;;;;;;;;;;-144.19;100.00;76425.69;5059572;28;20056;-90
2022/01/03 10:14:32;;;;;;;20.90;4.20;;;;;;;-144.19;100.00;76417.81;5058416;28;20041;-88
2022/01/03 10:16:59;;;;;;;18.45;4.30;;;;;;;-144.19;100.00;76413.88;5059129;28;20048;-89
2022/01/03 10:19:26;;;;;;;19.57;4.87;;;;;;;-144.19;100.00;76441.44;5059522;28;20052;-88
2022/01/03 10:21:52;;;;;;;20.67;5.10;;;;;;;-144.19;100.00;76457.19;5058480;28;20056;-88
2022/01/03 10:24:30;;;;;;;23.42;6.05;;;;;;;-144.19;100.00;76431.59;5058346;28;20052;-87
2022/01/03 10:26:56;;;;;;;19.55;4.18;;;;;;;-144.19;100.00;76404.03;5057191;28;20395;-89
2022/01/03 10:29:26;;;;;;;23.65;4.18;;;;;;;-144.19;100.00;76423.72;5056577;28;20048;-88
2022/01/03 10:31:55;;;;;;;20.10;5.05;;;;;;;-144.19;100.00;76421.75;5056677;28;20144;-88
2022/01/03 10:34:23;;;;;;;20.80;5.30;;;;;;;-144.19;100.00;76409.94;5058340;28;20045;-88
2022/01/03 10:36:52;;;;;;;16.60;4.60;;;;;;;-144.19;100.00;76423.72;5059064;28;20048;-90
2022/01/03 10:39:27;;;;;;;28.48;5.72;;;;;;;-144.19;100.00;76421.75;5056917;28;20055;-90
2022/01/03 10:42:12;;;;;;;24.10;4.93;;;;;;;-144.19;100.00;76417.81;5074509;28;20052;-88
2022/01/03 10:44:42;;;;;;;23.17;5.45;;;;;;;-144.19;100.00;76413.88;5058075;28;20054;-87
2022/01/03 10:47:15;;;;;;;16.00;4.45;;;;;;;-144.19;100.00;76427.66;5036804;28;20053;-88
2022/01/03 10:49:44;;;;;;;11.48;3.83;;;;;;;-144.19;100.00;76417.81;5057079;28;20495;-87
2022/01/03 10:52:11;;;;;;;24.17;5.30;;;;;;;-144.19;100.00;76409.94;5035772;28;20045;-91
2022/01/03 10:54:37;;;;;;;;;;;;;;;-144.19;100.00;76419.78;5037019;28;20059;-89
2022/01/03 10:57:05;;;;;;;14.82;3.80;;;;;;;-144.19;100.00;76411.91;5075863;28;19946;-90
2022/01/03 10:59:34;;;;;;;15.55;4.10;;;;;;;-144.19;100.00;76404.03;5077360;28;20048;-88
2022/01/03 11:02:04;;;;;;;16.20;4.72;;;;;;;-144.19;100.00;76386.31;5062166;28;20051;-88
2022/01/03 11:04:53;;;;;;;21.00;4.18;;;;;;;-144.19;100.00;76394.19;5036485;28;20056;-88
2022/01/03 11:13:10;;;;;;;16.48;4.30;;;;;;;-144.19;100.00;76350.88;5055023;28;20060;-90
2022/01/03 11:15:39;;;;;;;14.27;3.90;;;;;;;-144.19;100.00;76344.97;5035918;28;20057;-85
2022/01/03 11:18:21;;;;;;;20.02;4.65;;;;;;;-144.19;100.00;76331.22;5040001;28;20415;-88
2022/01/03 11:21:00;;;;;;;20.90;4.35;;;;;;;-144.19;100.00;76343.03;5038724;28;20110;-87
2022/01/03 11:23:30;;;;;;;15.77;3.92;;;;;;;-144.19;100.00;76311.53;5041939;28;20052;-86
2022/01/03 11:25:58;;;;;;;13.52;4.32;;;;;;;-144.19;100.00;76278.06;5044729;28;20056;-88